sensor_id;sensor_type;location;lat;lon;timestamp;P1;durP1;ratioP1;P2;durP2;ratioP2
73136;SDS011;67767;45.636;11.756;2023-02-15T00:01:30;134.50;;;59.72;;
73136;SDS011;67767;45.636;11.756;2023-02-15T00:03:56;127.27;;;59.57;;
73136;SDS011;67767;45.636;11.756;2023-02-15T00:06:21;126.75;;;58.30;;
73136;SDS011;67767;45.636;11.756;2023-02-15T00:08:47;127.53;;;56.57;;
73136;SDS011;67767;45.636;11.756;2023-02-15T00:11:14;133.52;;;57.95;;
73136;SDS011;67767;45.636;11.756;2023-02-15T00:13:41;131.05;;;57.90;;
73136;SDS011;67767;45.636;11.756;2023-02-15T00:16:08;117.82;;;55.80;;
73136;SDS011;67767;45.636;11.756;2023-02-15T00:18:35;119.60;;;55.70;;
73136;SDS011;67767;45.636;11.756;2023-02-15T00:21:05;119.30;;;56.30;;
73136;SDS011;67767;45.636;11.756;2023-02-15T00:23:33;120.03;;;54.83;;
73136;SDS011;67767;45.636;11.756;2023-02-15T00:26:09;127.38;;;57.28;;
73136;SDS011;67767;45.636;11.756;2023-02-15T00:28:36;124.13;;;58.80;;
73136;SDS011;67767;45.636;11.756;2023-02-15T00:31:05;111.30;;;54.33;;
73136;SDS011;67767;45.636;11.756;2023-02-15T00:33:32;116.87;;;54.67;;
73136;SDS011;67767;45.636;11.756;2023-02-15T00:35:59;125.80;;;56.97;;
73136;SDS011;67767;45.636;11.756;2023-02-15T00:38:28;115.13;;;54.75;;
73136;SDS011;67767;45.636;11.756;2023-02-15T00:40:55;113.47;;;53.55;;
73136;SDS011;67767;45.636;11.756;2023-02-15T00:43:22;112.97;;;53.28;;
73136;SDS011;67767;45.636;11.756;2023-02-15T00:45:48;106.50;;;50.50;;
73136;SDS011;67767;45.636;11.756;2023-02-15T00:48:14;106.32;;;50.97;;
73136;SDS011;67767;45.636;11.756;2023-02-15T00:50:39;104.87;;;51.37;;
73136;SDS011;67767;45.636;11.756;2023-02-15T00:53:05;104.90;;;50.55;;
73136;SDS011;67767;45.636;11.756;2023-02-15T00:55:31;113.43;;;52.80;;
73136;SDS011;67767;45.636;11.756;2023-02-15T00:57:56;103.93;;;50.42;;
73136;SDS011;67767;45.636;11.756;2023-02-15T01:00:22;102.33;;;51.30;;
73136;SDS011;67767;45.636;11.756;2023-02-15T01:02:49;102.80;;;50.08;;
73136;SDS011;67767;45.636;11.756;2023-02-15T01:12:10;97.47;;;45.13;;
73136;SDS011;67767;45.636;11.756;2023-02-15T01:14:36;105.68;;;49.08;;
73136;SDS011;67767;45.636;11.756;2023-02-15T01:17:02;101.40;;;46.33;;
73136;SDS011;67767;45.636;11.756;2023-02-15T01:19:28;126.97;;;55.10;;
73136;SDS011;67767;45.636;11.756;2023-02-15T01:21:53;109.47;;;49.88;;
73136;SDS011;67767;45.636;11.756;2023-02-15T01:24:19;130.93;;;61.60;;
73136;SDS011;67767;45.636;11.756;2023-02-15T01:26:45;153.98;;;65.10;;
73136;SDS011;67767;45.636;11.756;2023-02-15T01:29:10;120.20;;;53.47;;
73136;SDS011;67767;45.636;11.756;2023-02-15T01:31:36;111.45;;;50.53;;
73136;SDS011;67767;45.636;11.756;2023-02-15T01:34:03;107.40;;;49.70;;
73136;SDS011;67767;45.636;11.756;2023-02-15T01:36:29;100.65;;;47.83;;
73136;SDS011;67767;45.636;11.756;2023-02-15T01:38:55;108.43;;;47.73;;
73136;SDS011;67767;45.636;11.756;2023-02-15T01:41:21;101.97;;;45.63;;
73136;SDS011;67767;45.636;11.756;2023-02-15T01:43:59;100.30;;;47.17;;
73136;SDS011;67767;45.636;11.756;2023-02-15T01:46:33;117.65;;;49.85;;
73136;SDS011;67767;45.636;11.756;2023-02-15T01:49:08;126.40;;;51.80;;
73136;SDS011;67767;45.636;11.756;2023-02-15T01:51:35;171.48;;;62.70;;
73136;SDS011;67767;45.636;11.756;2023-02-15T01:54:09;139.18;;;54.70;;
73136;SDS011;67767;45.636;11.756;2023-02-15T01:56:42;120.60;;;48.17;;
73136;SDS011;67767;45.636;11.756;2023-02-15T01:59:14;114.27;;;50.03;;
73136;SDS011;67767;45.636;11.756;2023-02-15T02:01:44;101.80;;;47.22;;
73136;SDS011;67767;45.636;11.756;2023-02-15T02:04:25;94.25;;;43.83;;
73136;SDS011;67767;45.636;11.756;2023-02-15T02:07:01;97.22;;;44.90;;
73136;SDS011;67767;45.636;11.756;2023-02-15T02:09:28;94.22;;;45.35;;
73136;SDS011;67767;45.636;11.756;2023-02-15T02:11:55;100.53;;;44.93;;
73136;SDS011;67767;45.636;11.756;2023-02-15T02:14:20;95.78;;;45.08;;
73136;SDS011;67767;45.636;11.756;2023-02-15T02:19:29;97.43;;;44.55;;
73136;SDS011;67767;45.636;11.756;2023-02-15T02:27:38;93.35;;;42.70;;
73136;SDS011;67767;45.636;11.756;2023-02-15T02:32:50;94.55;;;43.88;;
73136;SDS011;67767;45.636;11.756;2023-02-15T02:46:54;86.82;;;40.22;;
73136;SDS011;67767;45.636;11.756;2023-02-15T02:52:04;97.53;;;43.58;;
73136;SDS011;67767;45.636;11.756;2023-02-15T02:54:33;92.88;;;44.78;;
73136;SDS011;67767;45.636;11.756;2023-02-15T02:57:01;90.63;;;43.17;;
73136;SDS011;67767;45.636;11.756;2023-02-15T02:59:36;96.88;;;42.75;;
73136;SDS011;67767;45.636;11.756;2023-02-15T03:02:08;93.30;;;42.47;;
73136;SDS011;67767;45.636;11.756;2023-02-15T03:04:56;94.75;;;41.97;;
73136;SDS011;67767;45.636;11.756;2023-02-15T03:07:28;95.70;;;43.35;;
73136;SDS011;67767;45.636;11.756;2023-02-15T03:09:59;87.20;;;42.50;;
73136;SDS011;67767;45.636;11.756;2023-02-15T03:12:32;94.38;;;42.80;;
73136;SDS011;67767;45.636;11.756;2023-02-15T03:17:30;87.05;;;40.42;;
73136;SDS011;67767;45.636;11.756;2023-02-15T03:19:58;92.90;;;41.10;;
73136;SDS011;67767;45.636;11.756;2023-02-15T03:22:34;90.53;;;39.50;;
73136;SDS011;67767;45.636;11.756;2023-02-15T03:25:11;84.03;;;41.13;;
73136;SDS011;67767;45.636;11.756;2023-02-15T03:27:43;92.18;;;40.75;;
73136;SDS011;67767;45.636;11.756;2023-02-15T03:30:12;92.47;;;41.15;;
73136;SDS011;67767;45.636;11.756;2023-02-15T03:32:40;90.70;;;40.58;;
73136;SDS011;67767;45.636;11.756;2023-02-15T03:35:08;81.63;;;40.20;;
73136;SDS011;67767;45.636;11.756;2023-02-15T03:37:37;86.65;;;39.83;;
73136;SDS011;67767;45.636;11.756;2023-02-15T03:43:11;92.28;;;42.00;;
73136;SDS011;67767;45.636;11.756;2023-02-15T03:45:55;95.07;;;42.13;;
73136;SDS011;67767;45.636;11.756;2023-02-15T03:48:36;86.73;;;39.63;;
73136;SDS011;67767;45.636;11.756;2023-02-15T03:51:07;92.45;;;39.67;;
73136;SDS011;67767;45.636;11.756;2023-02-15T03:53:55;88.45;;;39.83;;
73136;SDS011;67767;45.636;11.756;2023-02-15T03:56:23;89.47;;;39.53;;
73136;SDS011;67767;45.636;11.756;2023-02-15T03:58:49;95.78;;;41.72;;
73136;SDS011;67767;45.636;11.756;2023-02-15T04:01:35;83.33;;;39.33;;
73136;SDS011;67767;45.636;11.756;2023-02-15T04:04:27;89.65;;;40.53;;
73136;SDS011;67767;45.636;11.756;2023-02-15T04:06:59;82.93;;;38.53;;
73136;SDS011;67767;45.636;11.756;2023-02-15T04:09:25;93.22;;;40.22;;
73136;SDS011;67767;45.636;11.756;2023-02-15T04:12:09;93.03;;;40.75;;
73136;SDS011;67767;45.636;11.756;2023-02-15T04:14:35;92.10;;;42.30;;
73136;SDS011;67767;45.636;11.756;2023-02-15T04:17:19;84.95;;;40.42;;
73136;SDS011;67767;45.636;11.756;2023-02-15T04:19:45;88.65;;;40.83;;
73136;SDS011;67767;45.636;11.756;2023-02-15T04:22:29;101.03;;;43.63;;
73136;SDS011;67767;45.636;11.756;2023-02-15T04:25:13;96.05;;;45.50;;
73136;SDS011;67767;45.636;11.756;2023-02-15T04:27:40;88.18;;;43.08;;
73136;SDS011;67767;45.636;11.756;2023-02-15T04:30:07;88.03;;;45.58;;
73136;SDS011;67767;45.636;11.756;2023-02-15T04:32:34;83.73;;;39.43;;
73136;SDS011;67767;45.636;11.756;2023-02-15T04:35:01;86.55;;;40.50;;
73136;SDS011;67767;45.636;11.756;2023-02-15T04:37:27;114.97;;;55.83;;
73136;SDS011;67767;45.636;11.756;2023-02-15T04:39:53;91.97;;;45.47;;
73136;SDS011;67767;45.636;11.756;2023-02-15T04:42:18;97.60;;;45.17;;
73136;SDS011;67767;45.636;11.756;2023-02-15T04:44:44;106.17;;;54.03;;
73136;SDS011;67767;45.636;11.756;2023-02-15T04:47:09;106.10;;;52.40;;
73136;SDS011;67767;45.636;11.756;2023-02-15T04:49:35;87.20;;;40.70;;
73136;SDS011;67767;45.636;11.756;2023-02-15T04:52:01;84.47;;;41.87;;
73136;SDS011;67767;45.636;11.756;2023-02-15T04:54:26;90.77;;;43.13;;
73136;SDS011;67767;45.636;11.756;2023-02-15T04:56:52;88.93;;;41.37;;
73136;SDS011;67767;45.636;11.756;2023-02-15T04:59:18;79.88;;;38.78;;
73136;SDS011;67767;45.636;11.756;2023-02-15T05:01:43;83.70;;;38.43;;
73136;SDS011;67767;45.636;11.756;2023-02-15T05:04:09;75.07;;;36.88;;
73136;SDS011;67767;45.636;11.756;2023-02-15T05:06:35;77.77;;;35.80;;
73136;SDS011;67767;45.636;11.756;2023-02-15T05:09:01;79.95;;;38.55;;
73136;SDS011;67767;45.636;11.756;2023-02-15T05:11:27;78.28;;;36.85;;
73136;SDS011;67767;45.636;11.756;2023-02-15T05:13:52;81.90;;;36.30;;
73136;SDS011;67767;45.636;11.756;2023-02-15T05:16:18;81.78;;;38.13;;
73136;SDS011;67767;45.636;11.756;2023-02-15T05:18:44;82.83;;;36.77;;
73136;SDS011;67767;45.636;11.756;2023-02-15T05:21:09;79.18;;;33.78;;
73136;SDS011;67767;45.636;11.756;2023-02-15T05:23:35;79.37;;;37.20;;
73136;SDS011;67767;45.636;11.756;2023-02-15T05:26:01;80.35;;;35.63;;
73136;SDS011;67767;45.636;11.756;2023-02-15T05:28:46;74.53;;;34.50;;
73136;SDS011;67767;45.636;11.756;2023-02-15T05:31:16;78.97;;;35.40;;
73136;SDS011;67767;45.636;11.756;2023-02-15T05:33:43;80.10;;;38.33;;
73136;SDS011;67767;45.636;11.756;2023-02-15T05:36:10;83.47;;;39.80;;
73136;SDS011;67767;45.636;11.756;2023-02-15T05:38:36;81.72;;;36.80;;
73136;SDS011;67767;45.636;11.756;2023-02-15T05:41:02;72.10;;;35.73;;
73136;SDS011;67767;45.636;11.756;2023-02-15T05:43:29;73.55;;;34.50;;
73136;SDS011;67767;45.636;11.756;2023-02-15T05:45:55;71.03;;;35.30;;
73136;SDS011;67767;45.636;11.756;2023-02-15T05:48:22;69.90;;;32.60;;
73136;SDS011;67767;45.636;11.756;2023-02-15T05:51:02;72.68;;;32.45;;
73136;SDS011;67767;45.636;11.756;2023-02-15T05:53:30;71.35;;;31.15;;
73136;SDS011;67767;45.636;11.756;2023-02-15T05:55:57;66.55;;;32.03;;
73136;SDS011;67767;45.636;11.756;2023-02-15T05:58:28;63.13;;;29.98;;
73136;SDS011;67767;45.636;11.756;2023-02-15T06:00:55;70.53;;;32.23;;
73136;SDS011;67767;45.636;11.756;2023-02-15T06:03:21;71.47;;;32.80;;
73136;SDS011;67767;45.636;11.756;2023-02-15T06:05:48;81.65;;;34.15;;
73136;SDS011;67767;45.636;11.756;2023-02-15T06:08:14;83.63;;;35.90;;
73136;SDS011;67767;45.636;11.756;2023-02-15T06:10:40;65.75;;;32.83;;
73136;SDS011;67767;45.636;11.756;2023-02-15T06:13:06;64.72;;;31.35;;
73136;SDS011;67767;45.636;11.756;2023-02-15T06:15:31;69.17;;;36.17;;
73136;SDS011;67767;45.636;11.756;2023-02-15T06:17:57;70.88;;;32.78;;
73136;SDS011;67767;45.636;11.756;2023-02-15T06:20:23;69.90;;;31.27;;
73136;SDS011;67767;45.636;11.756;2023-02-15T06:22:49;62.90;;;31.00;;
73136;SDS011;67767;45.636;11.756;2023-02-15T06:25:15;69.25;;;33.28;;
73136;SDS011;67767;45.636;11.756;2023-02-15T06:27:41;79.47;;;35.30;;
73136;SDS011;67767;45.636;11.756;2023-02-15T06:30:07;72.80;;;35.28;;
73136;SDS011;67767;45.636;11.756;2023-02-15T06:32:34;73.82;;;35.08;;
73136;SDS011;67767;45.636;11.756;2023-02-15T06:35:00;66.28;;;32.90;;
73136;SDS011;67767;45.636;11.756;2023-02-15T06:37:25;70.77;;;30.73;;
73136;SDS011;67767;45.636;11.756;2023-02-15T06:39:51;86.32;;;35.60;;
73136;SDS011;67767;45.636;11.756;2023-02-15T06:42:17;71.93;;;33.53;;
73136;SDS011;67767;45.636;11.756;2023-02-15T06:44:43;70.72;;;30.45;;
73136;SDS011;67767;45.636;11.756;2023-02-15T06:47:09;70.95;;;32.40;;
73136;SDS011;67767;45.636;11.756;2023-02-15T06:49:36;70.45;;;30.65;;
73136;SDS011;67767;45.636;11.756;2023-02-15T06:52:02;63.50;;;28.23;;
73136;SDS011;67767;45.636;11.756;2023-02-15T06:54:28;62.17;;;28.98;;
73136;SDS011;67767;45.636;11.756;2023-02-15T06:56:54;65.97;;;29.73;;
73136;SDS011;67767;45.636;11.756;2023-02-15T06:59:19;60.33;;;27.53;;
73136;SDS011;67767;45.636;11.756;2023-02-15T07:01:45;57.80;;;27.77;;
73136;SDS011;67767;45.636;11.756;2023-02-15T07:04:11;60.00;;;27.63;;
73136;SDS011;67767;45.636;11.756;2023-02-15T07:06:37;67.65;;;31.13;;
73136;SDS011;67767;45.636;11.756;2023-02-15T07:09:03;74.80;;;32.20;;
73136;SDS011;67767;45.636;11.756;2023-02-15T07:11:30;68.80;;;30.57;;
73136;SDS011;67767;45.636;11.756;2023-02-15T07:14:14;71.35;;;32.72;;
73136;SDS011;67767;45.636;11.756;2023-02-15T07:16:40;76.80;;;32.60;;
73136;SDS011;67767;45.636;11.756;2023-02-15T07:19:06;61.37;;;29.93;;
73136;SDS011;67767;45.636;11.756;2023-02-15T07:21:32;58.38;;;28.35;;
73136;SDS011;67767;45.636;11.756;2023-02-15T07:23:58;56.53;;;27.42;;
73136;SDS011;67767;45.636;11.756;2023-02-15T07:26:25;55.90;;;27.53;;
73136;SDS011;67767;45.636;11.756;2023-02-15T07:28:50;59.20;;;28.37;;
73136;SDS011;67767;45.636;11.756;2023-02-15T07:31:16;62.97;;;30.38;;
73136;SDS011;67767;45.636;11.756;2023-02-15T07:33:42;69.03;;;35.03;;
73136;SDS011;67767;45.636;11.756;2023-02-15T07:36:08;73.93;;;37.72;;
73136;SDS011;67767;45.636;11.756;2023-02-15T07:38:37;59.38;;;31.42;;
73136;SDS011;67767;45.636;11.756;2023-02-15T07:41:05;56.30;;;28.58;;
73136;SDS011;67767;45.636;11.756;2023-02-15T07:43:37;50.07;;;26.83;;
73136;SDS011;67767;45.636;11.756;2023-02-15T07:46:05;51.40;;;25.67;;
73136;SDS011;67767;45.636;11.756;2023-02-15T07:48:33;57.33;;;27.30;;
73136;SDS011;67767;45.636;11.756;2023-02-15T07:51:00;52.28;;;27.80;;
73136;SDS011;67767;45.636;11.756;2023-02-15T07:53:26;55.50;;;27.13;;
73136;SDS011;67767;45.636;11.756;2023-02-15T07:55:52;55.80;;;26.13;;
73136;SDS011;67767;45.636;11.756;2023-02-15T07:58:18;50.65;;;25.50;;
73136;SDS011;67767;45.636;11.756;2023-02-15T08:00:44;61.15;;;28.42;;
73136;SDS011;67767;45.636;11.756;2023-02-15T08:03:23;53.67;;;30.45;;
73136;SDS011;67767;45.636;11.756;2023-02-15T08:05:54;52.03;;;26.67;;
73136;SDS011;67767;45.636;11.756;2023-02-15T08:08:21;51.05;;;26.13;;
73136;SDS011;67767;45.636;11.756;2023-02-15T08:11:03;53.28;;;26.15;;
73136;SDS011;67767;45.636;11.756;2023-02-15T08:13:51;54.58;;;28.35;;
73136;SDS011;67767;45.636;11.756;2023-02-15T08:16:22;55.25;;;26.52;;
73136;SDS011;67767;45.636;11.756;2023-02-15T08:18:50;53.43;;;26.63;;
73136;SDS011;67767;45.636;11.756;2023-02-15T08:21:17;50.90;;;25.05;;
73136;SDS011;67767;45.636;11.756;2023-02-15T08:23:43;50.13;;;27.08;;
73136;SDS011;67767;45.636;11.756;2023-02-15T08:26:09;59.47;;;31.98;;
73136;SDS011;67767;45.636;11.756;2023-02-15T08:28:34;72.07;;;37.07;;
73136;SDS011;67767;45.636;11.756;2023-02-15T08:31:07;75.82;;;38.50;;
73136;SDS011;67767;45.636;11.756;2023-02-15T08:33:37;76.13;;;39.88;;
73136;SDS011;67767;45.636;11.756;2023-02-15T08:36:04;68.45;;;36.33;;
73136;SDS011;67767;45.636;11.756;2023-02-15T08:38:33;72.10;;;34.50;;
73136;SDS011;67767;45.636;11.756;2023-02-15T08:41:15;65.05;;;31.77;;
73136;SDS011;67767;45.636;11.756;2023-02-15T08:43:41;62.28;;;31.95;;
73136;SDS011;67767;45.636;11.756;2023-02-15T08:46:08;56.35;;;29.95;;
73136;SDS011;67767;45.636;11.756;2023-02-15T08:48:36;61.58;;;30.50;;
73136;SDS011;67767;45.636;11.756;2023-02-15T08:51:07;53.90;;;28.57;;
73136;SDS011;67767;45.636;11.756;2023-02-15T08:53:35;49.63;;;27.70;;
73136;SDS011;67767;45.636;11.756;2023-02-15T08:56:02;52.50;;;25.98;;
73136;SDS011;67767;45.636;11.756;2023-02-15T08:58:28;47.27;;;24.43;;
73136;SDS011;67767;45.636;11.756;2023-02-15T09:00:55;45.70;;;24.17;;
73136;SDS011;67767;45.636;11.756;2023-02-15T09:03:22;40.97;;;19.92;;
73136;SDS011;67767;45.636;11.756;2023-02-15T09:05:48;53.80;;;26.73;;
73136;SDS011;67767;45.636;11.756;2023-02-15T09:08:14;91.32;;;44.58;;
73136;SDS011;67767;45.636;11.756;2023-02-15T09:10:39;107.80;;;51.90;;
73136;SDS011;67767;45.636;11.756;2023-02-15T09:13:05;102.82;;;49.40;;
73136;SDS011;67767;45.636;11.756;2023-02-15T09:15:31;76.37;;;42.80;;
73136;SDS011;67767;45.636;11.756;2023-02-15T09:17:57;67.80;;;38.53;;
73136;SDS011;67767;45.636;11.756;2023-02-15T09:20:26;58.38;;;31.63;;
73136;SDS011;67767;45.636;11.756;2023-02-15T09:22:53;49.53;;;26.37;;
73136;SDS011;67767;45.636;11.756;2023-02-15T09:25:19;48.42;;;24.48;;
73136;SDS011;67767;45.636;11.756;2023-02-15T09:27:45;41.38;;;22.52;;
73136;SDS011;67767;45.636;11.756;2023-02-15T09:30:11;48.80;;;23.40;;
73136;SDS011;67767;45.636;11.756;2023-02-15T09:32:37;50.57;;;25.20;;
73136;SDS011;67767;45.636;11.756;2023-02-15T09:35:03;46.55;;;24.45;;
73136;SDS011;67767;45.636;11.756;2023-02-15T09:37:32;51.45;;;25.50;;
73136;SDS011;67767;45.636;11.756;2023-02-15T09:39:57;65.80;;;30.58;;
73136;SDS011;67767;45.636;11.756;2023-02-15T09:42:36;50.97;;;26.80;;
73136;SDS011;67767;45.636;11.756;2023-02-15T09:47:55;48.97;;;24.77;;
73136;SDS011;67767;45.636;11.756;2023-02-15T10:01:51;55.58;;;24.33;;
73136;SDS011;67767;45.636;11.756;2023-02-15T10:07:08;45.97;;;23.27;;
73136;SDS011;67767;45.636;11.756;2023-02-15T10:31:11;43.97;;;25.08;;
73136;SDS011;67767;45.636;11.756;2023-02-15T10:49:32;43.50;;;25.00;;
73136;SDS011;67767;45.636;11.756;2023-02-15T11:00:18;52.00;;;26.55;;
73136;SDS011;67767;45.636;11.756;2023-02-15T11:05:31;48.73;;;25.57;;
73136;SDS011;67767;45.636;11.756;2023-02-15T11:08:19;45.35;;;24.48;;
73136;SDS011;67767;45.636;11.756;2023-02-15T11:10:49;51.13;;;26.48;;
73136;SDS011;67767;45.636;11.756;2023-02-15T11:13:19;45.97;;;24.55;;
73136;SDS011;67767;45.636;11.756;2023-02-15T11:15:51;48.88;;;24.67;;
73136;SDS011;67767;45.636;11.756;2023-02-15T11:21:14;42.20;;;24.23;;
73136;SDS011;67767;45.636;11.756;2023-02-15T11:23:47;45.72;;;23.13;;
73136;SDS011;67767;45.636;11.756;2023-02-15T11:26:15;41.33;;;23.40;;
73136;SDS011;67767;45.636;11.756;2023-02-15T11:28:52;40.72;;;23.27;;
73136;SDS011;67767;45.636;11.756;2023-02-15T11:31:35;40.30;;;21.73;;
73136;SDS011;67767;45.636;11.756;2023-02-15T11:34:34;40.28;;;22.35;;
73136;SDS011;67767;45.636;11.756;2023-02-15T11:37:10;44.92;;;25.67;;
73136;SDS011;67767;45.636;11.756;2023-02-15T11:39:38;39.72;;;21.98;;
73136;SDS011;67767;45.636;11.756;2023-02-15T11:42:15;43.08;;;24.60;;
73136;SDS011;67767;45.636;11.756;2023-02-15T11:44:54;41.50;;;22.43;;
73136;SDS011;67767;45.636;11.756;2023-02-15T11:47:27;42.38;;;24.25;;
73136;SDS011;67767;45.636;11.756;2023-02-15T11:49:53;41.58;;;22.48;;
73136;SDS011;67767;45.636;11.756;2023-02-15T11:52:19;43.00;;;22.73;;
73136;SDS011;67767;45.636;11.756;2023-02-15T11:54:46;37.90;;;21.47;;
73136;SDS011;67767;45.636;11.756;2023-02-15T11:57:17;37.13;;;21.85;;
73136;SDS011;67767;45.636;11.756;2023-02-15T11:59:50;39.42;;;22.58;;
73136;SDS011;67767;45.636;11.756;2023-02-15T12:02:25;42.22;;;27.73;;
73136;SDS011;67767;45.636;11.756;2023-02-15T12:05:01;38.03;;;21.03;;
73136;SDS011;67767;45.636;11.756;2023-02-15T12:07:32;40.00;;;21.65;;
73136;SDS011;67767;45.636;11.756;2023-02-15T12:10:05;37.63;;;21.65;;
73136;SDS011;67767;45.636;11.756;2023-02-15T12:13:16;39.40;;;21.85;;
73136;SDS011;67767;45.636;11.756;2023-02-15T12:15:46;39.08;;;21.35;;
73136;SDS011;67767;45.636;11.756;2023-02-15T12:18:37;43.73;;;21.70;;
73136;SDS011;67767;45.636;11.756;2023-02-15T12:21:14;38.20;;;22.10;;
73136;SDS011;67767;45.636;11.756;2023-02-15T12:23:52;38.22;;;22.48;;
73136;SDS011;67767;45.636;11.756;2023-02-15T12:26:25;40.03;;;22.15;;
73136;SDS011;67767;45.636;11.756;2023-02-15T12:28:51;40.03;;;23.42;;
73136;SDS011;67767;45.636;11.756;2023-02-15T12:33:52;40.45;;;22.55;;
73136;SDS011;67767;45.636;11.756;2023-02-15T12:36:21;51.85;;;24.20;;
73136;SDS011;67767;45.636;11.756;2023-02-15T12:39:03;40.63;;;22.15;;
73136;SDS011;67767;45.636;11.756;2023-02-15T12:41:37;41.05;;;22.52;;
73136;SDS011;67767;45.636;11.756;2023-02-15T12:44:21;39.97;;;21.90;;
73136;SDS011;67767;45.636;11.756;2023-02-15T12:47:03;38.58;;;23.30;;
73136;SDS011;67767;45.636;11.756;2023-02-15T12:49:33;41.50;;;23.88;;
73136;SDS011;67767;45.636;11.756;2023-02-15T12:52:01;42.72;;;23.63;;
73136;SDS011;67767;45.636;11.756;2023-02-15T12:54:47;40.28;;;23.15;;
73136;SDS011;67767;45.636;11.756;2023-02-15T13:02:19;40.33;;;22.98;;
73136;SDS011;67767;45.636;11.756;2023-02-15T13:05:04;42.38;;;23.33;;
73136;SDS011;67767;45.636;11.756;2023-02-15T13:07:50;37.80;;;22.60;;
73136;SDS011;67767;45.636;11.756;2023-02-15T13:10:23;37.87;;;22.43;;
73136;SDS011;67767;45.636;11.756;2023-02-15T13:13:25;44.50;;;23.92;;
73136;SDS011;67767;45.636;11.756;2023-02-15T13:16:07;43.92;;;23.30;;
73136;SDS011;67767;45.636;11.756;2023-02-15T13:18:42;42.20;;;23.45;;
73136;SDS011;67767;45.636;11.756;2023-02-15T13:21:14;38.00;;;22.33;;
73136;SDS011;67767;45.636;11.756;2023-02-15T13:23:49;40.63;;;24.23;;
73136;SDS011;67767;45.636;11.756;2023-02-15T13:26:20;38.10;;;22.73;;
73136;SDS011;67767;45.636;11.756;2023-02-15T13:28:49;39.15;;;23.98;;
73136;SDS011;67767;45.636;11.756;2023-02-15T13:31:20;41.30;;;23.23;;
73136;SDS011;67767;45.636;11.756;2023-02-15T13:33:52;39.80;;;23.42;;
73136;SDS011;67767;45.636;11.756;2023-02-15T13:39:00;42.47;;;24.20;;
73136;SDS011;67767;45.636;11.756;2023-02-15T13:41:50;39.30;;;23.52;;
73136;SDS011;67767;45.636;11.756;2023-02-15T13:46:59;41.50;;;23.20;;
73136;SDS011;67767;45.636;11.756;2023-02-15T13:52:29;40.38;;;23.38;;
73136;SDS011;67767;45.636;11.756;2023-02-15T14:08:37;47.05;;;27.80;;
73136;SDS011;67767;45.636;11.756;2023-02-15T14:21:45;45.63;;;27.83;;
73136;SDS011;67767;45.636;11.756;2023-02-15T14:30:02;45.90;;;28.37;;
73136;SDS011;67767;45.636;11.756;2023-02-15T14:32:53;48.85;;;29.30;;
73136;SDS011;67767;45.636;11.756;2023-02-15T14:35:27;48.65;;;29.63;;
73136;SDS011;67767;45.636;11.756;2023-02-15T14:38:00;48.10;;;27.45;;
73136;SDS011;67767;45.636;11.756;2023-02-15T14:48:53;51.25;;;27.42;;
73136;SDS011;67767;45.636;11.756;2023-02-15T14:56:45;50.57;;;26.23;;
73136;SDS011;67767;45.636;11.756;2023-02-15T15:04:33;48.63;;;25.40;;
73136;SDS011;67767;45.636;11.756;2023-02-15T15:07:01;50.47;;;26.08;;
73136;SDS011;67767;45.636;11.756;2023-02-15T15:09:33;59.47;;;27.35;;
73136;SDS011;67767;45.636;11.756;2023-02-15T15:14:46;56.63;;;25.80;;
73136;SDS011;67767;45.636;11.756;2023-02-15T15:17:51;52.13;;;26.30;;
73136;SDS011;67767;45.636;11.756;2023-02-15T15:20:11;56.17;;;26.92;;
73136;SDS011;67767;45.636;11.756;2023-02-15T15:22:38;54.33;;;26.40;;
73136;SDS011;67767;45.636;11.756;2023-02-15T15:25:09;49.25;;;24.80;;
73136;SDS011;67767;45.636;11.756;2023-02-15T15:27:52;50.47;;;25.05;;
73136;SDS011;67767;45.636;11.756;2023-02-15T15:32:57;53.63;;;26.17;;
73136;SDS011;67767;45.636;11.756;2023-02-15T15:47:22;97.57;;;45.67;;
73136;SDS011;67767;45.636;11.756;2023-02-15T15:50:14;83.07;;;37.97;;
73136;SDS011;67767;45.636;11.756;2023-02-15T15:52:52;65.95;;;31.80;;
73136;SDS011;67767;45.636;11.756;2023-02-15T15:55:23;57.33;;;27.63;;
73136;SDS011;67767;45.636;11.756;2023-02-15T15:57:55;69.80;;;28.77;;
73136;SDS011;67767;45.636;11.756;2023-02-15T16:00:29;65.47;;;26.98;;
73136;SDS011;67767;45.636;11.756;2023-02-15T16:02:56;65.45;;;28.98;;
73136;SDS011;67767;45.636;11.756;2023-02-15T16:05:22;67.65;;;28.88;;
73136;SDS011;67767;45.636;11.756;2023-02-15T16:07:48;69.87;;;30.07;;
73136;SDS011;67767;45.636;11.756;2023-02-15T16:10:22;63.55;;;28.70;;
73136;SDS011;67767;45.636;11.756;2023-02-15T16:12:50;69.53;;;30.95;;
73136;SDS011;67767;45.636;11.756;2023-02-15T16:15:18;75.15;;;31.98;;
73136;SDS011;67767;45.636;11.756;2023-02-15T16:17:50;104.53;;;36.10;;
73136;SDS011;67767;45.636;11.756;2023-02-15T16:20:23;83.83;;;35.17;;
73136;SDS011;67767;45.636;11.756;2023-02-15T16:23:04;77.10;;;34.53;;
73136;SDS011;67767;45.636;11.756;2023-02-15T16:28:35;77.53;;;33.55;;
73136;SDS011;67767;45.636;11.756;2023-02-15T16:31:12;71.67;;;29.60;;
73136;SDS011;67767;45.636;11.756;2023-02-15T16:33:39;71.15;;;31.80;;
73136;SDS011;67767;45.636;11.756;2023-02-15T16:36:09;75.63;;;31.33;;
73136;SDS011;67767;45.636;11.756;2023-02-15T16:41:29;82.38;;;38.13;;
73136;SDS011;67767;45.636;11.756;2023-02-15T16:44:07;74.53;;;34.83;;
73136;SDS011;67767;45.636;11.756;2023-02-15T16:46:41;66.60;;;31.25;;
73136;SDS011;67767;45.636;11.756;2023-02-15T16:49:29;69.35;;;30.33;;
73136;SDS011;67767;45.636;11.756;2023-02-15T16:51:59;72.00;;;32.13;;
73136;SDS011;67767;45.636;11.756;2023-02-15T16:54:34;69.55;;;31.67;;
73136;SDS011;67767;45.636;11.756;2023-02-15T16:57:01;69.93;;;33.73;;
73136;SDS011;67767;45.636;11.756;2023-02-15T17:01:55;68.03;;;31.85;;
73136;SDS011;67767;45.636;11.756;2023-02-15T17:07:21;81.20;;;35.80;;
73136;SDS011;67767;45.636;11.756;2023-02-15T17:09:50;115.78;;;50.53;;
73136;SDS011;67767;45.636;11.756;2023-02-15T17:12:43;151.25;;;66.78;;
73136;SDS011;67767;45.636;11.756;2023-02-15T17:17:57;85.17;;;39.30;;
73136;SDS011;67767;45.636;11.756;2023-02-15T17:20:50;87.18;;;37.63;;
73136;SDS011;67767;45.636;11.756;2023-02-15T17:23:28;93.45;;;39.17;;
73136;SDS011;67767;45.636;11.756;2023-02-15T17:25:56;92.85;;;42.67;;
73136;SDS011;67767;45.636;11.756;2023-02-15T17:28:24;95.32;;;43.78;;
73136;SDS011;67767;45.636;11.756;2023-02-15T17:30:52;102.93;;;42.87;;
73136;SDS011;67767;45.636;11.756;2023-02-15T17:33:26;104.22;;;43.60;;
73136;SDS011;67767;45.636;11.756;2023-02-15T17:36:05;90.88;;;39.65;;
73136;SDS011;67767;45.636;11.756;2023-02-15T17:38:41;98.82;;;45.78;;
73136;SDS011;67767;45.636;11.756;2023-02-15T17:41:35;88.35;;;39.03;;
73136;SDS011;67767;45.636;11.756;2023-02-15T17:44:02;92.67;;;43.07;;
73136;SDS011;67767;45.636;11.756;2023-02-15T17:46:29;99.90;;;45.78;;
73136;SDS011;67767;45.636;11.756;2023-02-15T17:48:59;89.07;;;40.75;;